createdAt,value
2022-10-13T00:00:47.845Z,99.90
2022-10-13T00:03:15.182Z,99.90
2022-10-13T00:05:42.800Z,99.90
2022-10-13T00:08:10.324Z,99.90
2022-10-13T00:10:41.969Z,99.90
2022-10-13T00:13:11.902Z,99.90
2022-10-13T00:15:39.757Z,99.90
2022-10-13T00:18:06.591Z,99.90
2022-10-13T00:20:33.471Z,99.90
2022-10-13T00:23:00.200Z,99.90
2022-10-13T00:25:27.139Z,99.90
2022-10-13T00:27:53.973Z,99.90
2022-10-13T00:30:21.278Z,99.90
2022-10-13T00:32:48.359Z,99.90
2022-10-13T00:35:15.306Z,99.90
2022-10-13T00:37:42.073Z,99.90
2022-10-13T00:40:08.985Z,99.90
2022-10-13T00:42:35.776Z,99.90
2022-10-13T00:45:07.506Z,99.90
2022-10-13T00:47:37.014Z,99.90
2022-10-13T00:50:04.794Z,99.90
2022-10-13T00:52:33.017Z,99.90
2022-10-13T00:55:00.029Z,99.90
2022-10-13T00:57:26.918Z,99.90
2022-10-13T00:59:53.676Z,99.90
2022-10-13T01:02:21.144Z,99.90
2022-10-13T01:04:50.151Z,99.90
2022-10-13T01:07:18.748Z,99.90
2022-10-13T01:09:45.791Z,99.90
2022-10-13T01:12:25.285Z,99.90
2022-10-13T01:14:54.922Z,99.90
2022-10-13T01:17:35.858Z,99.90
2022-10-13T01:20:21.521Z,99.90
2022-10-13T01:22:57.343Z,99.90
2022-10-13T01:25:39.527Z,99.90
2022-10-13T01:28:18.839Z,99.90
2022-10-13T01:30:48.332Z,99.90
2022-10-13T01:33:35.550Z,99.90
2022-10-13T01:36:10.214Z,99.90
2022-10-13T01:38:42.317Z,99.90
2022-10-13T01:41:21.368Z,99.90
2022-10-13T01:43:51.444Z,99.90
2022-10-13T01:46:21.099Z,99.90
2022-10-13T01:48:49.168Z,99.90
2022-10-13T01:51:18.158Z,99.90
2022-10-13T01:53:46.278Z,99.90
2022-10-13T01:56:13.066Z,99.90
2022-10-13T01:58:40.751Z,99.90
2022-10-13T02:01:07.448Z,99.90
2022-10-13T02:03:38.524Z,99.90
2022-10-13T02:06:16.117Z,99.90
2022-10-13T02:08:50.959Z,99.90
2022-10-13T02:11:44.496Z,99.90
2022-10-13T02:15:02.116Z,99.90
2022-10-13T02:17:30.601Z,99.90
2022-10-13T02:19:57.464Z,99.90
2022-10-13T02:22:29.650Z,99.90
2022-10-13T02:24:59.115Z,99.90
2022-10-13T02:27:46.427Z,99.90
2022-10-13T02:30:20.580Z,99.90
2022-10-13T02:32:47.654Z,99.90
2022-10-13T02:35:14.352Z,99.90
2022-10-13T02:37:41.158Z,99.90
2022-10-13T02:40:10.109Z,99.90
2022-10-13T02:42:36.937Z,99.90
2022-10-13T02:45:04.436Z,99.90
2022-10-13T02:47:31.204Z,99.90
2022-10-13T02:49:59.146Z,99.90
2022-10-13T02:52:25.856Z,99.90
2022-10-13T02:54:52.615Z,99.90
2022-10-13T02:57:19.416Z,99.90
2022-10-13T02:59:48.085Z,99.90
2022-10-13T03:02:14.845Z,99.90
2022-10-13T03:04:41.689Z,99.90
2022-10-13T03:07:08.486Z,99.90
2022-10-13T03:09:35.356Z,99.90
2022-10-13T03:12:02.323Z,99.90
2022-10-13T03:14:29.693Z,99.90
2022-10-13T03:16:56.694Z,99.90
2022-10-13T03:19:23.415Z,99.90
2022-10-13T03:21:50.318Z,99.90
2022-10-13T03:24:17.033Z,99.90
2022-10-13T03:26:43.915Z,99.90
2022-10-13T03:29:18.218Z,99.90
2022-10-13T03:31:45.207Z,99.90
2022-10-13T03:34:12.704Z,99.90
2022-10-13T03:36:39.605Z,99.90
2022-10-13T03:39:06.705Z,99.90
2022-10-13T03:41:33.595Z,99.90
2022-10-13T03:44:00.467Z,99.90
2022-10-13T03:46:30.081Z,99.90
2022-10-13T03:48:58.638Z,99.90
2022-10-13T03:51:25.650Z,99.90
2022-10-13T03:53:52.758Z,99.90
2022-10-13T03:56:21.457Z,99.90
2022-10-13T03:58:54.238Z,99.90
2022-10-13T04:01:22.274Z,99.90
2022-10-13T04:03:49.612Z,99.90
2022-10-13T04:06:16.753Z,99.90
2022-10-13T04:08:43.787Z,99.90
2022-10-13T04:11:11.954Z,99.90
2022-10-13T04:13:40.649Z,99.90
2022-10-13T04:16:16.408Z,99.90
2022-10-13T04:18:44.823Z,99.90
2022-10-13T04:21:13.269Z,99.90
2022-10-13T04:23:40.038Z,99.90
2022-10-13T04:26:06.803Z,99.90
2022-10-13T04:28:35.882Z,99.90
2022-10-13T04:31:03.129Z,99.90
2022-10-13T04:33:30.836Z,99.90
2022-10-13T04:35:57.624Z,99.90
2022-10-13T04:38:24.444Z,99.90
2022-10-13T04:40:51.173Z,99.90
2022-10-13T04:43:17.997Z,99.90
2022-10-13T04:45:44.708Z,99.90
2022-10-13T04:48:11.498Z,99.90
2022-10-13T04:50:38.165Z,99.90
2022-10-13T04:53:04.929Z,99.90
2022-10-13T04:55:32.047Z,99.90
2022-10-13T04:57:58.718Z,99.90
2022-10-13T05:00:25.591Z,99.90
2022-10-13T05:02:52.397Z,99.90
2022-10-13T05:05:19.069Z,99.90
2022-10-13T05:07:45.778Z,99.90
2022-10-13T05:10:12.538Z,99.90
2022-10-13T05:12:39.384Z,99.90
2022-10-13T05:15:06.510Z,99.90
2022-10-13T05:17:35.483Z,99.90
2022-10-13T05:20:08.320Z,99.90
2022-10-13T05:22:35.013Z,99.90
2022-10-13T05:25:01.683Z,99.90
2022-10-13T05:27:28.665Z,99.90
2022-10-13T05:29:55.346Z,99.90
2022-10-13T05:32:22.339Z,99.90
2022-10-13T05:34:49.278Z,99.90
2022-10-13T05:37:17.155Z,99.90
2022-10-13T05:39:48.641Z,99.90
2022-10-13T05:42:15.814Z,99.90
2022-10-13T05:44:42.835Z,99.90
2022-10-13T05:47:09.600Z,99.90
2022-10-13T05:49:39.570Z,99.90
2022-10-13T05:52:08.223Z,99.90
2022-10-13T05:54:37.926Z,99.90
2022-10-13T05:57:06.900Z,99.90
2022-10-13T05:59:35.841Z,99.90
2022-10-13T06:02:03.057Z,99.90
2022-10-13T06:04:31.868Z,99.90
2022-10-13T06:06:58.590Z,99.90
2022-10-13T06:09:26.144Z,99.90
2022-10-13T06:11:52.828Z,99.90
2022-10-13T06:14:21.059Z,99.90
2022-10-13T06:16:47.841Z,99.90
2022-10-13T06:19:14.592Z,99.90
2022-10-13T06:21:41.702Z,99.90
2022-10-13T06:24:09.109Z,99.90
2022-10-13T06:26:35.887Z,99.90
2022-10-13T06:29:02.760Z,99.90
2022-10-13T06:31:29.593Z,99.90
2022-10-13T06:33:56.358Z,99.90
2022-10-13T06:36:23.186Z,99.90
2022-10-13T06:38:49.873Z,99.90
2022-10-13T06:41:20.176Z,99.90
2022-10-13T06:43:47.443Z,99.90
2022-10-13T06:46:16.674Z,99.90
2022-10-13T06:48:43.381Z,99.90
2022-10-13T06:51:11.568Z,99.90
2022-10-13T06:53:38.270Z,99.90
2022-10-13T06:56:05.880Z,99.90
2022-10-13T06:58:33.823Z,99.90
2022-10-13T07:01:00.836Z,99.90
2022-10-13T07:03:27.741Z,99.90
2022-10-13T07:05:54.503Z,99.90
2022-10-13T07:08:21.215Z,99.90
2022-10-13T07:10:48.841Z,99.90
2022-10-13T07:13:15.856Z,99.90
2022-10-13T07:15:42.716Z,99.90
2022-10-13T07:18:09.418Z,99.90
2022-10-13T07:20:36.150Z,99.90
2022-10-13T07:23:04.134Z,99.90
2022-10-13T07:25:30.811Z,99.90
2022-10-13T07:28:00.918Z,99.90
2022-10-13T07:30:27.599Z,99.90
2022-10-13T07:32:54.503Z,99.90
2022-10-13T07:35:24.767Z,99.90
2022-10-13T07:37:57.993Z,99.90
2022-10-13T07:40:24.989Z,99.90
2022-10-13T07:42:51.712Z,99.90
2022-10-13T07:45:19.186Z,99.90
2022-10-13T07:47:45.986Z,99.90
2022-10-13T07:50:12.688Z,99.90
2022-10-13T07:52:40.324Z,99.90
2022-10-13T07:55:10.187Z,99.90
2022-10-13T07:57:37.009Z,99.90
2022-10-13T08:00:07.522Z,99.90
2022-10-13T08:02:39.388Z,99.90
2022-10-13T08:05:07.278Z,99.90
2022-10-13T08:07:34.054Z,99.90
2022-10-13T08:10:00.890Z,99.90
2022-10-13T08:12:27.712Z,99.90
2022-10-13T08:14:54.406Z,99.90
2022-10-13T08:17:22.164Z,99.90
2022-10-13T08:19:50.687Z,99.90
2022-10-13T08:22:18.077Z,99.90
2022-10-13T08:24:45.291Z,99.90
2022-10-13T08:27:15.556Z,99.90
2022-10-13T08:29:42.992Z,99.90
2022-10-13T08:32:09.730Z,99.90
2022-10-13T08:34:36.911Z,99.90
2022-10-13T08:37:03.836Z,99.90
2022-10-13T08:39:30.947Z,99.90
2022-10-13T08:42:00.541Z,99.90
2022-10-13T08:47:29.456Z,99.90
2022-10-13T08:50:02.302Z,99.90
2022-10-13T08:52:42.394Z,99.90
2022-10-13T08:55:16.034Z,99.90
2022-10-13T08:57:43.488Z,99.90
2022-10-13T09:00:12.455Z,99.90
2022-10-13T09:02:43.190Z,99.90
2022-10-13T09:05:14.015Z,99.90
2022-10-13T09:07:41.075Z,99.90
2022-10-13T09:10:09.658Z,99.90
2022-10-13T09:12:36.520Z,99.90
2022-10-13T09:15:09.969Z,99.90
2022-10-13T09:17:38.113Z,99.90
2022-10-13T09:20:21.470Z,99.90
2022-10-13T09:23:03.363Z,99.90
2022-10-13T09:25:32.636Z,99.90
2022-10-13T09:28:04.013Z,99.90
2022-10-13T09:30:36.225Z,99.90
2022-10-13T09:33:11.828Z,99.90
2022-10-13T09:35:44.043Z,99.90
2022-10-13T09:38:13.172Z,99.90
2022-10-13T09:40:40.966Z,99.90
2022-10-13T09:43:34.192Z,99.90
2022-10-13T09:46:02.530Z,99.90
2022-10-13T09:48:30.966Z,99.90
2022-10-13T09:50:58.415Z,99.90
2022-10-13T09:53:29.505Z,99.90
2022-10-13T09:56:16.808Z,99.90
2022-10-13T09:59:07.288Z,99.90
2022-10-13T10:01:36.608Z,99.90
2022-10-13T10:04:06.621Z,99.90
2022-10-13T10:06:34.779Z,99.90
2022-10-13T10:09:11.631Z,99.90
2022-10-13T10:11:42.354Z,99.90
2022-10-13T10:14:18.224Z,99.90
2022-10-13T10:16:48.639Z,97.80
2022-10-13T10:19:34.007Z,95.90
2022-10-13T10:22:04.047Z,95.20
2022-10-13T10:24:41.568Z,92.90
2022-10-13T10:27:14.521Z,87.50
2022-10-13T10:29:48.538Z,86.10
2022-10-13T10:32:34.103Z,82.00
2022-10-13T10:35:10.082Z,78.30
2022-10-13T10:37:46.516Z,75.50
2022-10-13T10:40:13.623Z,74.50
2022-10-13T10:43:03.439Z,72.80
2022-10-13T10:45:33.767Z,72.10
2022-10-13T10:48:02.563Z,72.20
2022-10-13T10:50:30.806Z,72.40
2022-10-13T10:53:07.365Z,72.30
2022-10-13T10:55:52.974Z,73.40
2022-10-13T10:58:31.942Z,75.10
2022-10-13T11:01:19.500Z,76.10
2022-10-13T11:03:46.239Z,79.40
2022-10-13T11:06:12.912Z,83.60
2022-10-13T11:08:44.463Z,86.00
2022-10-13T11:11:24.921Z,88.30
2022-10-13T11:14:07.011Z,89.00
2022-10-13T11:16:33.898Z,88.90
2022-10-13T11:19:05.843Z,90.10
2022-10-13T11:21:51.698Z,89.40
2022-10-13T11:24:44.909Z,86.10
2022-10-13T11:27:17.054Z,86.00
2022-10-13T11:29:47.240Z,83.30
2022-10-13T11:32:35.073Z,84.30
2022-10-13T11:35:06.141Z,82.50
2022-10-13T11:37:39.162Z,78.60
2022-10-13T11:40:06.030Z,75.50
2022-10-13T11:42:48.559Z,73.20
2022-10-13T11:45:25.107Z,73.30
2022-10-13T11:47:59.478Z,72.00
2022-10-13T11:50:37.148Z,69.30
2022-10-13T11:53:11.868Z,66.30
2022-10-13T11:55:38.591Z,65.60
2022-10-13T11:58:09.739Z,64.60
2022-10-13T12:00:36.573Z,63.80
2022-10-13T12:03:03.309Z,64.20
2022-10-13T12:05:30.145Z,64.10
2022-10-13T12:07:58.779Z,63.90
2022-10-13T12:10:35.780Z,65.40
2022-10-13T12:13:04.305Z,67.20
2022-10-13T12:15:31.027Z,67.10
2022-10-13T12:17:57.854Z,66.90
2022-10-13T12:20:27.480Z,67.80
2022-10-13T12:22:54.874Z,69.80
2022-10-13T12:25:23.044Z,70.50
2022-10-13T12:27:58.154Z,71.50
2022-10-13T12:30:24.837Z,71.60
2022-10-13T12:32:52.432Z,70.80
2022-10-13T12:35:39.416Z,68.20
2022-10-13T12:38:07.485Z,68.10
2022-10-13T12:40:35.238Z,67.70
2022-10-13T12:43:03.820Z,68.20
2022-10-13T12:45:32.653Z,66.80
2022-10-13T12:47:59.454Z,66.60
2022-10-13T12:50:29.223Z,66.70
2022-10-13T12:53:02.108Z,65.30
2022-10-13T12:55:28.925Z,64.80
2022-10-13T12:57:56.037Z,64.60
2022-10-13T13:00:24.112Z,64.90
2022-10-13T13:02:52.105Z,65.80
2022-10-13T13:05:35.701Z,64.80
2022-10-13T13:08:04.412Z,64.40
2022-10-13T13:10:31.268Z,64.40
2022-10-13T13:13:12.122Z,62.90
2022-10-13T13:15:39.475Z,63.60
2022-10-13T13:18:27.771Z,65.00
2022-10-13T13:20:54.661Z,66.40
2022-10-13T13:23:23.394Z,67.30
2022-10-13T13:26:09.071Z,68.70
2022-10-13T13:28:35.979Z,70.90
2022-10-13T13:31:03.439Z,71.10
2022-10-13T13:33:30.137Z,72.20
2022-10-13T13:35:58.625Z,74.60
2022-10-13T13:38:25.641Z,76.60
2022-10-13T13:40:52.346Z,78.50
2022-10-13T13:43:19.237Z,80.00
2022-10-13T13:45:46.110Z,81.00
2022-10-13T13:48:13.287Z,82.30
2022-10-13T13:50:40.145Z,83.30
2022-10-13T13:53:07.340Z,84.10
2022-10-13T13:55:34.417Z,84.90
2022-10-13T13:58:03.364Z,85.40
2022-10-13T14:00:30.941Z,85.70
2022-10-13T14:02:58.280Z,86.00
2022-10-13T14:05:25.465Z,86.30
2022-10-13T14:07:57.734Z,87.70
2022-10-13T14:10:25.746Z,88.40
2022-10-13T14:12:52.553Z,89.30
2022-10-13T14:15:19.294Z,90.10
2022-10-13T14:17:46.060Z,90.50
2022-10-13T14:20:12.968Z,90.90
2022-10-13T14:22:39.779Z,91.20
2022-10-13T14:25:07.186Z,92.10
2022-10-13T14:27:34.598Z,92.20
2022-10-13T14:30:02.601Z,92.60
2022-10-13T14:32:29.599Z,93.10
2022-10-13T14:34:56.440Z,93.40
2022-10-13T14:37:25.007Z,93.40
2022-10-13T14:39:53.625Z,93.20
2022-10-13T14:42:20.333Z,93.30
2022-10-13T14:44:47.384Z,93.60
2022-10-13T14:47:14.280Z,93.60
2022-10-13T14:49:41.066Z,93.70
2022-10-13T14:52:08.717Z,93.50
2022-10-13T14:54:35.435Z,93.20
2022-10-13T14:57:05.473Z,93.00
2022-10-13T14:59:32.250Z,93.30
2022-10-13T15:01:59.081Z,93.60
2022-10-13T15:04:26.018Z,93.90
2022-10-13T15:06:52.706Z,94.30
2022-10-13T15:09:21.058Z,94.60
2022-10-13T15:11:52.289Z,95.10
2022-10-13T15:14:18.950Z,95.60
2022-10-13T15:16:45.673Z,96.10
2022-10-13T15:19:13.522Z,96.70
2022-10-13T15:21:40.855Z,97.20
2022-10-13T15:24:08.301Z,98.00
2022-10-13T15:26:36.735Z,98.80
2022-10-13T15:29:04.336Z,99.40
2022-10-13T15:31:31.083Z,99.90
2022-10-13T15:33:57.777Z,99.90
2022-10-13T15:36:25.251Z,99.90
2022-10-13T15:38:51.891Z,99.90
2022-10-13T15:41:19.776Z,99.90
2022-10-13T15:43:47.646Z,99.90
2022-10-13T15:46:21.723Z,99.90
2022-10-13T15:48:49.296Z,99.90
2022-10-13T15:51:17.846Z,99.90
2022-10-13T15:53:44.930Z,99.90
2022-10-13T15:56:11.744Z,99.90
2022-10-13T15:58:38.500Z,99.90
2022-10-13T16:01:09.090Z,99.90
2022-10-13T16:03:35.981Z,99.90
2022-10-13T16:06:04.490Z,99.90
2022-10-13T16:08:31.421Z,99.90
2022-10-13T16:10:58.106Z,99.90
2022-10-13T16:13:24.852Z,99.90
2022-10-13T16:15:58.422Z,99.90
2022-10-13T16:18:28.563Z,99.90
2022-10-13T16:20:55.242Z,99.90
2022-10-13T16:23:21.983Z,99.90
2022-10-13T16:25:48.689Z,99.90
2022-10-13T16:28:15.482Z,99.90
2022-10-13T16:30:43.044Z,99.90
2022-10-13T16:33:09.756Z,99.90
2022-10-13T16:35:36.426Z,99.90
2022-10-13T16:38:03.084Z,99.90
2022-10-13T16:40:29.745Z,99.90
2022-10-13T16:42:56.396Z,99.90
2022-10-13T16:45:41.156Z,99.90
2022-10-13T16:48:09.825Z,99.90
2022-10-13T16:50:37.793Z,99.90
2022-10-13T16:53:04.521Z,99.90
2022-10-13T16:55:31.207Z,99.90
2022-10-13T16:57:59.462Z,99.90
2022-10-13T17:00:26.157Z,99.90
2022-10-13T17:02:53.106Z,99.90
2022-10-13T17:05:19.801Z,99.90
2022-10-13T17:07:46.644Z,99.90
2022-10-13T17:10:13.433Z,99.90
2022-10-13T17:12:40.221Z,99.90
2022-10-13T17:15:07.157Z,99.90
2022-10-13T17:17:34.911Z,99.90
2022-10-13T17:20:01.712Z,99.90
2022-10-13T17:22:28.486Z,99.90
2022-10-13T17:24:55.200Z,99.90
2022-10-13T17:27:22.386Z,99.90
2022-10-13T17:29:52.214Z,99.90
2022-10-13T17:32:19.053Z,99.90
2022-10-13T17:34:46.137Z,99.90
2022-10-13T17:37:13.267Z,99.90
2022-10-13T17:39:40.064Z,99.90
2022-10-13T17:42:08.097Z,99.90
2022-10-13T17:44:35.349Z,99.90
2022-10-13T17:47:02.105Z,99.90
2022-10-13T17:49:28.883Z,99.90
2022-10-13T17:51:55.962Z,99.90
2022-10-13T17:54:23.053Z,99.90
2022-10-13T17:56:50.251Z,99.90
2022-10-13T17:59:19.042Z,99.90
2022-10-13T18:01:46.460Z,99.90
2022-10-13T18:04:17.789Z,99.90
2022-10-13T18:06:45.225Z,99.90
2022-10-13T18:09:15.432Z,99.90
2022-10-13T18:11:48.816Z,99.90
2022-10-13T18:14:17.357Z,99.90
2022-10-13T18:16:45.338Z,99.90
2022-10-13T18:19:12.690Z,99.90
2022-10-13T18:21:39.421Z,99.90
2022-10-13T18:24:06.403Z,99.90
2022-10-13T18:26:35.692Z,99.90
2022-10-13T18:29:03.368Z,99.90
2022-10-13T18:31:31.733Z,99.90
2022-10-13T18:34:00.283Z,99.90
2022-10-13T18:36:29.958Z,99.90
2022-10-13T18:39:00.919Z,99.90
2022-10-13T18:41:27.564Z,99.90
2022-10-13T18:43:55.280Z,99.90
2022-10-13T18:46:23.127Z,99.90
2022-10-13T18:48:50.217Z,99.90
2022-10-13T18:51:18.253Z,99.90
2022-10-13T18:53:46.432Z,99.90
2022-10-13T18:56:15.502Z,99.90
2022-10-13T18:58:42.240Z,99.90
2022-10-13T19:01:10.812Z,99.90
2022-10-13T19:03:39.381Z,99.90
2022-10-13T19:06:07.855Z,99.90
2022-10-13T19:08:36.394Z,99.90
2022-10-13T19:11:10.570Z,99.90
2022-10-13T19:13:37.476Z,99.90
2022-10-13T19:16:04.757Z,99.90
2022-10-13T19:18:31.700Z,99.90
2022-10-13T19:20:58.475Z,99.90
2022-10-13T19:23:25.475Z,99.90
2022-10-13T19:25:52.456Z,99.90
2022-10-13T19:28:19.717Z,99.90
2022-10-13T19:30:46.721Z,99.90
2022-10-13T19:33:14.077Z,99.90
2022-10-13T19:35:51.599Z,99.90
2022-10-13T19:38:18.666Z,99.90
2022-10-13T19:40:47.609Z,99.90
2022-10-13T19:43:14.473Z,99.90
2022-10-13T19:45:50.074Z,99.90
2022-10-13T19:48:20.183Z,99.90
2022-10-13T19:50:47.136Z,99.90
2022-10-13T19:53:15.646Z,99.90
2022-10-13T19:55:43.799Z,99.90
2022-10-13T19:58:10.764Z,99.90
2022-10-13T20:00:37.449Z,99.90
2022-10-13T20:03:04.864Z,99.90
2022-10-13T20:05:31.761Z,99.90
2022-10-13T20:07:58.551Z,99.90
2022-10-13T20:10:25.483Z,99.90
2022-10-13T20:12:52.116Z,99.90
2022-10-13T20:15:18.826Z,99.90
2022-10-13T20:17:46.441Z,99.90
2022-10-13T20:20:13.186Z,99.90
2022-10-13T20:22:39.935Z,99.90
2022-10-13T20:25:07.413Z,99.90
2022-10-13T20:27:34.075Z,99.90
2022-10-13T20:30:00.775Z,99.90
2022-10-13T20:32:28.652Z,99.90
2022-10-13T20:34:55.412Z,99.90
2022-10-13T20:37:22.341Z,99.90
2022-10-13T20:39:49.757Z,99.90
2022-10-13T20:42:16.509Z,99.90
2022-10-13T20:44:43.314Z,99.90
2022-10-13T20:47:10.266Z,99.90
2022-10-13T20:49:37.148Z,99.90
2022-10-13T20:52:03.802Z,99.90
2022-10-13T20:54:30.511Z,99.90
2022-10-13T20:56:57.888Z,99.90
2022-10-13T20:59:24.677Z,99.90
2022-10-13T21:01:51.574Z,99.90
2022-10-13T21:04:18.595Z,99.90
2022-10-13T21:06:46.035Z,99.90
2022-10-13T21:09:14.452Z,99.90
2022-10-13T21:11:41.763Z,99.90
2022-10-13T21:14:09.764Z,99.90
2022-10-13T21:16:36.738Z,99.90
2022-10-13T21:19:08.485Z,99.90
2022-10-13T21:21:35.973Z,99.90
2022-10-13T21:24:04.991Z,99.90
2022-10-13T21:26:32.408Z,99.90
2022-10-13T21:28:59.318Z,99.90
2022-10-13T21:31:26.663Z,99.90
2022-10-13T21:33:53.854Z,99.90
2022-10-13T21:36:23.129Z,99.90
2022-10-13T21:38:51.023Z,99.90
2022-10-13T21:41:18.006Z,99.90
2022-10-13T21:43:44.728Z,99.90
2022-10-13T21:46:15.880Z,99.90
2022-10-13T21:48:43.409Z,99.90
2022-10-13T21:51:11.159Z,99.90
2022-10-13T21:53:37.978Z,99.90
2022-10-13T21:56:06.929Z,99.90
2022-10-13T21:58:34.219Z,99.90
2022-10-13T22:01:01.297Z,99.90
2022-10-13T22:03:28.254Z,99.90
2022-10-13T22:05:54.929Z,99.90
2022-10-13T22:08:32.821Z,99.90
2022-10-13T22:11:10.818Z,99.90
2022-10-13T22:13:37.737Z,99.90
2022-10-13T22:16:20.931Z,99.90
2022-10-13T22:18:48.656Z,99.90
2022-10-13T22:21:16.944Z,99.90
2022-10-13T22:23:43.890Z,99.90
2022-10-13T22:26:11.139Z,99.90
2022-10-13T22:28:38.335Z,99.90
2022-10-13T22:31:05.761Z,99.90
2022-10-13T22:33:33.800Z,99.90
2022-10-13T22:36:00.543Z,99.90
2022-10-13T22:38:27.241Z,99.90
2022-10-13T22:40:53.929Z,99.90
2022-10-13T22:43:20.804Z,99.90
2022-10-13T22:45:51.164Z,99.90
2022-10-13T22:48:18.167Z,99.90
2022-10-13T22:50:45.070Z,99.90
2022-10-13T22:53:11.885Z,99.90
2022-10-13T22:55:39.799Z,99.90
2022-10-13T22:58:06.842Z,99.90
2022-10-13T23:00:37.398Z,99.90
2022-10-13T23:03:04.583Z,99.90
2022-10-13T23:05:32.630Z,99.90
2022-10-13T23:07:59.362Z,99.90
2022-10-13T23:10:26.799Z,99.90
2022-10-13T23:12:53.510Z,99.90
2022-10-13T23:15:20.203Z,99.90
2022-10-13T23:17:47.068Z,99.90
2022-10-13T23:20:13.786Z,99.90
2022-10-13T23:22:40.738Z,99.90
2022-10-13T23:25:07.591Z,99.90
2022-10-13T23:27:34.434Z,99.90
2022-10-13T23:30:01.275Z,99.90
2022-10-13T23:32:27.977Z,99.90
2022-10-13T23:34:54.705Z,99.90
2022-10-13T23:37:23.790Z,99.90
2022-10-13T23:39:50.763Z,99.90
2022-10-13T23:42:18.320Z,99.90
2022-10-13T23:44:45.571Z,99.90
2022-10-13T23:47:12.301Z,99.90
2022-10-13T23:49:39.193Z,99.90
2022-10-13T23:52:10.671Z,99.90
2022-10-13T23:54:37.936Z,99.90
2022-10-13T23:57:04.623Z,99.90
2022-10-13T23:59:31.358Z,99.90
